Time;durP1;ratioP1;P1;durP2;ratioP2;P2;SDS_P1;SDS_P2;PMS_P1;PMS_P2;Temp;Humidity;BMP_temperature;BMP_pressure;BME280_temperature;BME280_humidity;BME280_pressure;Samples;Min_cycle;Max_cycle;Signal;HPM_P1;HPM_P2
2022/02/13 00:00:52;;;;;;;15.25;8.95;;;;;;;1.83;68.34;100587.78;1087173;54;20101;-79
2022/02/13 00:01:54;;;;;;;17.05;10.13;;;;;;;1.84;68.11;100579.78;1086843;54;20035;-79
2022/02/13 00:02:58;;;;;;;14.85;9.90;;;;;;;1.88;68.37;100572.59;1087220;54;20030;-79
2022/02/13 00:03:59;;;;;;;14.70;9.77;;;;;;;1.91;68.34;100582.16;1087005;54;20038;-79
2022/02/13 00:05:03;;;;;;;15.75;9.52;;;;;;;1.95;68.31;100573.13;1086650;54;20038;-78
2022/02/13 00:06:07;;;;;;;14.93;9.52;;;;;;;1.98;68.10;100580.91;1086971;54;20030;-79
2022/02/13 00:07:09;;;;;;;13.93;9.20;;;;;;;1.97;68.00;100577.44;1087289;54;20022;-80
2022/02/13 01:35:09;;;;;;;14.20;8.27;;;;;;;1.53;66.25;100535.63;1087126;54;21137;-81
2022/02/13 01:36:12;;;;;;;12.68;8.68;;;;;;;1.54;66.37;100539.97;1092250;39;20857;-82
2022/02/13 01:37:17;;;;;;;13.40;8.00;;;;;;;1.51;66.62;100541.00;1087677;54;20645;-80
2022/02/13 01:38:19;;;;;;;14.07;8.88;;;;;;;1.49;66.70;100534.09;1088235;54;20023;-81
2022/02/13 01:39:23;;;;;;;11.40;8.38;;;;;;;1.55;66.37;100541.69;1088547;54;20099;-82
2022/02/13 01:51:17;;;;;;;13.77;9.00;;;;;;;1.30;67.42;100518.31;1087574;54;20634;-80
2022/02/13 01:52:19;;;;;;;11.18;8.15;;;;;;;1.37;66.97;100515.31;1087256;54;20038;-81
2022/02/13 01:53:24;;;;;;;13.65;8.70;;;;;;;1.34;67.19;100519.88;1087274;54;20042;-80
2022/02/13 01:54:26;;;;;;;13.35;8.93;;;;;;;1.32;67.08;100522.59;1087404;54;20030;-81
2022/02/13 01:55:30;;;;;;;14.55;8.98;;;;;;;1.32;67.51;100524.34;1087613;54;20030;-80
2022/02/13 01:56:32;;;;;;;15.95;9.85;;;;;;;1.23;67.79;100525.63;1087920;54;20066;-80
2022/02/13 01:57:42;;;;;;;14.45;9.45;;;;;;;1.20;68.15;100525.81;1089233;46;20131;-79
2022/02/13 01:58:44;;;;;;;14.77;9.40;;;;;;;1.19;68.06;100522.31;1088119;54;20022;-80
2022/02/13 01:59:49;;;;;;;17.30;10.48;;;;;;;1.17;68.33;100516.28;1088326;46;20037;-81
2022/02/13 02:00:51;;;;;;;16.13;10.43;;;;;;;1.14;68.50;100518.19;1089942;46;20069;-81
2022/02/13 02:01:55;;;;;;;18.65;12.30;;;;;;;1.06;68.85;100511.50;1088757;46;20107;-80
2022/02/13 02:02:56;;;;;;;18.58;10.68;;;;;;;1.05;68.92;100519.47;1088399;46;20053;-82
2022/02/13 02:04:05;;;;;;;15.50;10.30;;;;;;;1.03;68.81;100518.69;1088338;46;20038;-81
2022/02/13 02:05:08;;;;;;;15.52;9.88;;;;;;;1.06;68.67;100522.03;1087738;54;20046;-80
2022/02/13 02:06:18;;;;;;;17.60;11.00;;;;;;;0.99;68.83;100511.88;1087844;54;20027;-80
2022/02/13 02:07:19;;;;;;;18.52;11.52;;;;;;;0.92;69.17;100512.16;1087830;54;20042;-80
2022/02/13 02:08:24;;;;;;;16.23;11.15;;;;;;;0.90;69.14;100507.88;1087888;54;20030;-80
2022/02/13 02:09:35;;;;;;;17.02;11.18;;;;;;;0.86;69.26;100516.84;1087987;54;20046;-80
2022/02/13 02:10:45;;;;;;;;;;;;;;;0.68;70.57;100516.75;1088031;54;20042;-79
2022/02/13 02:11:48;;;;;;;18.67;11.88;;;;;;;0.62;70.49;100515.25;1087922;54;19942;-78
2022/02/13 02:12:54;;;;;;;18.60;12.57;;;;;;;0.58;70.85;100524.22;1089815;39;20684;-79
2022/02/13 02:14:10;;;;;;;19.83;13.52;;;;;;;0.55;70.82;100518.25;1088093;54;20054;-79
2022/02/13 02:15:15;;;;;;;20.30;12.23;;;;;;;0.59;70.71;100507.53;1088074;54;20062;-79
2022/02/13 02:16:22;;;;;;;20.27;12.48;;;;;;;0.57;70.87;100514.63;1087984;54;20036;-80
2022/02/13 02:17:23;;;;;;;18.75;12.82;;;;;;;0.59;70.78;100511.91;1088030;54;20034;-79
2022/02/13 02:18:27;;;;;;;16.85;12.07;;;;;;;0.61;70.50;100507.44;1088294;54;20075;-79
2022/02/13 02:19:31;;;;;;;18.50;11.35;;;;;;;0.64;70.61;100509.94;1088120;46;20030;-79
2022/02/13 02:20:35;;;;;;;15.77;11.13;;;;;;;0.65;70.54;100511.66;1089019;46;20037;-79
2022/02/13 02:21:42;;;;;;;17.58;10.52;;;;;;;0.72;70.60;100504.31;1088586;46;20019;-79
2022/02/13 02:22:49;;;;;;;16.23;12.10;;;;;;;0.68;70.63;100505.41;1088172;54;20030;-79
2022/02/13 02:23:56;;;;;;;18.27;10.60;;;;;;;0.70;70.59;100501.75;1088158;46;20035;-79
2022/02/13 02:24:58;;;;;;;15.90;10.57;;;;;;;0.74;70.51;100494.56;1089783;47;20024;-79
2022/02/13 02:26:02;;;;;;;16.52;11.15;;;;;;;0.76;70.72;100498.00;1090527;46;20139;-78
2022/02/13 02:27:04;;;;;;;15.00;10.70;;;;;;;0.75;70.25;100485.75;1087969;54;20039;-79
2022/02/13 02:28:08;;;;;;;16.50;10.85;;;;;;;0.77;70.20;100486.53;1087782;54;20034;-78
2022/02/13 02:29:10;;;;;;;14.55;9.55;;;;;;;0.79;70.31;100482.06;1087989;54;20131;-80
2022/02/13 02:30:15;;;;;;;16.42;10.18;;;;;;;0.81;70.20;100490.72;1087969;54;20035;-79
2022/02/13 02:31:16;;;;;;;14.40;9.93;;;;;;;0.80;70.27;100488.19;1087974;54;20022;-79
2022/02/13 02:32:20;;;;;;;15.30;10.00;;;;;;;0.76;70.70;100483.03;1087961;54;20037;-78
2022/02/13 02:33:22;;;;;;;15.18;10.07;;;;;;;0.78;70.66;100490.88;1087896;54;20045;-79
2022/02/13 02:34:26;;;;;;;14.95;10.48;;;;;;;0.80;70.44;100482.91;1090945;46;20713;-79
2022/02/13 02:35:30;;;;;;;16.83;11.13;;;;;;;0.77;70.68;100486.53;1087409;54;20035;-80
2022/02/13 02:36:32;;;;;;;16.15;10.18;;;;;;;0.80;70.71;100482.91;1089191;46;20034;-79
2022/02/13 02:37:36;;;;;;;16.13;10.05;;;;;;;0.83;70.65;100483.63;1087760;54;20041;-79
2022/02/13 02:38:38;;;;;;;16.70;10.57;;;;;;;0.79;70.91;100476.81;1087660;54;20035;-80
2022/02/13 02:39:44;;;;;;;15.00;10.63;;;;;;;0.80;70.97;100477.66;1089002;46;20054;-79
2022/02/13 02:40:46;;;;;;;15.65;10.00;;;;;;;0.81;70.89;100468.81;1087708;54;20038;-79
2022/02/13 02:41:50;;;;;;;13.95;9.35;;;;;;;0.84;70.66;100471.31;1087734;54;20031;-79
2022/02/13 02:42:52;;;;;;;16.00;10.35;;;;;;;0.83;70.71;100482.78;1087745;54;20041;-79
2022/02/13 02:43:56;;;;;;;16.50;10.95;;;;;;;0.79;71.00;100474.16;1087766;54;20099;-79
2022/02/13 02:44:57;;;;;;;16.63;10.80;;;;;;;0.73;71.18;100464.78;1087841;54;20038;-79
2022/02/13 02:46:01;;;;;;;16.27;11.27;;;;;;;0.77;71.10;100468.97;1087738;54;20035;-79
2022/02/13 02:47:04;;;;;;;15.57;10.93;;;;;;;0.79;70.95;100466.28;1087798;54;20038;-78
2022/02/13 02:48:08;;;;;;;17.55;10.88;;;;;;;0.78;71.02;100460.16;1087648;54;20034;-79
2022/02/13 02:49:10;;;;;;;15.85;11.00;;;;;;;0.80;70.94;100461.84;1088582;46;20038;-78
2022/02/13 02:50:15;;;;;;;14.82;9.77;;;;;;;0.77;70.92;100460.22;1087788;54;20031;-78
2022/02/13 02:51:17;;;;;;;17.40;10.48;;;;;;;0.75;71.13;100459.44;1087543;54;20034;-79
2022/02/13 02:52:21;;;;;;;15.15;9.68;;;;;;;0.79;71.11;100455.75;1087725;54;20049;-80
2022/02/13 02:53:22;;;;;;;16.35;10.18;;;;;;;0.74;71.33;100461.22;1087751;54;20753;-80
2022/02/13 02:54:26;;;;;;;16.58;10.60;;;;;;;0.76;71.22;100469.03;1087755;54;20038;-78
2022/02/13 02:55:31;;;;;;;17.60;10.85;;;;;;;0.74;71.46;100465.63;1087706;54;20042;-78
2022/02/13 02:56:35;;;;;;;16.88;10.93;;;;;;;0.70;71.44;100462.28;1087800;54;20034;-79
2022/02/13 02:57:36;;;;;;;16.17;10.82;;;;;;;0.73;71.28;100463.91;1087791;54;20037;-79
2022/02/13 02:58:41;;;;;;;16.20;11.00;;;;;;;0.74;71.45;100469.13;1087762;54;20037;-79
2022/02/13 02:59:42;;;;;;;17.20;11.82;;;;;;;0.69;71.36;100460.56;1087778;54;20038;-79
2022/02/13 03:00:48;;;;;;;16.10;11.23;;;;;;;0.68;71.58;100472.03;1087749;54;20030;-79
2022/02/13 03:01:49;;;;;;;17.25;11.25;;;;;;;0.68;71.66;100468.56;1087786;54;20026;-79
2022/02/13 03:02:54;;;;;;;18.35;11.70;;;;;;;0.64;71.77;100467.84;1087726;54;20041;-78
2022/02/13 03:03:55;;;;;;;15.45;11.15;;;;;;;0.65;71.84;100474.81;1087651;54;20031;-79
2022/02/13 03:05:00;;;;;;;16.30;10.93;;;;;;;0.65;71.96;100469.56;1088142;39;20741;-79
2022/02/13 03:06:01;;;;;;;18.85;11.45;;;;;;;0.62;71.69;100469.69;1087780;54;20035;-78
2022/02/13 03:07:06;;;;;;;15.10;10.90;;;;;;;0.68;71.57;100472.03;1087584;54;20034;-79
2022/02/13 03:08:07;;;;;;;17.95;11.55;;;;;;;0.60;71.87;100461.00;1087521;54;20035;-79
2022/02/13 03:09:12;;;;;;;16.95;11.82;;;;;;;0.65;71.71;100476.56;1087722;54;20025;-78
2022/02/13 03:10:14;;;;;;;16.83;10.73;;;;;;;0.66;71.58;100465.13;1089816;39;20728;-79
2022/02/13 03:11:20;;;;;;;20.73;12.68;;;;;;;0.52;72.21;100457.88;1087770;54;20019;-79
2022/02/13 03:12:22;;;;;;;18.80;12.18;;;;;;;0.50;72.01;100465.84;1087794;54;20037;-79
2022/02/13 03:13:26;;;;;;;16.15;11.27;;;;;;;0.47;72.20;100468.59;1087919;46;20094;-79
2022/02/13 03:14:28;;;;;;;16.80;11.20;;;;;;;0.41;72.48;100464.47;1088459;46;20034;-79
2022/02/13 03:15:32;;;;;;;17.45;11.93;;;;;;;0.41;72.51;100467.09;1087722;54;20022;-79
2022/02/13 03:16:33;;;;;;;19.02;12.73;;;;;;;0.30;73.17;100458.84;1087711;54;20038;-79
2022/02/13 03:17:37;;;;;;;21.10;14.15;;;;;;;0.24;73.47;100465.22;1087756;54;20034;-79
2022/02/13 03:18:42;;;;;;;20.40;12.93;;;;;;;0.17;73.49;100468.22;1089275;46;20030;-79
2022/02/13 03:19:46;;;;;;;20.67;13.82;;;;;;;0.09;74.13;100466.78;1089397;46;20041;-79
2022/02/13 03:20:48;;;;;;;22.58;14.02;;;;;;;0.06;74.17;100466.03;1087720;54;20843;-79
2022/02/13 03:21:53;;;;;;;21.70;15.15;;;;;;;-0.03;74.36;100468.16;1087720;54;20030;-79
2022/02/13 03:22:54;;;;;;;17.85;13.35;;;;;;;-0.02;74.11;100459.34;1087609;54;20038;-79
2022/02/13 03:23:58;;;;;;;18.48;13.05;;;;;;;0.02;74.21;100460.06;1087374;54;20034;-79
2022/02/13 03:25:00;;;;;;;20.08;13.13;;;;;;;-0.04;74.40;100466.44;1087731;54;20030;-79
2022/02/13 03:26:04;;;;;;;19.55;13.23;;;;;;;0.03;74.10;100469.66;1088056;39;20794;-79
2022/02/13 03:27:08;;;;;;;17.90;12.30;;;;;;;0.10;74.01;100463.19;1087700;54;20038;-79
2022/02/13 03:28:13;;;;;;;19.15;13.10;;;;;;;0.06;73.91;100461.66;1087724;54;20078;-80
2022/02/13 03:29:14;;;;;;;18.20;12.55;;;;;;;0.04;73.97;100460.84;1087731;54;20874;-80
2022/02/13 03:30:18;;;;;;;17.70;12.82;;;;;;;0.03;73.94;100466.19;1087727;54;20046;-79
2022/02/13 03:31:20;;;;;;;20.17;14.23;;;;;;;0.01;74.10;100457.50;1088420;46;20026;-82
2022/02/13 03:32:24;;;;;;;19.25;13.15;;;;;;;-0.07;74.51;100461.34;1087800;54;20035;-81
2022/02/13 03:33:35;;;;;;;18.85;12.32;;;;;;;-0.09;74.35;100463.16;1089118;46;20037;-78
2022/02/13 03:34:47;;;;;;;19.35;12.30;;;;;;;-0.10;74.62;100471.13;1087731;54;20033;-79
2022/02/13 03:35:53;;;;;;;17.63;12.63;;;;;;;-0.12;74.49;100465.06;1087550;54;20042;-79
2022/02/13 03:36:55;;;;;;;19.70;13.70;;;;;;;-0.14;74.66;100465.13;1087758;54;20038;-79
2022/02/13 03:37:59;;;;;;;19.80;13.00;;;;;;;-0.17;74.71;100462.66;1087725;54;20031;-80
2022/02/13 03:39:01;;;;;;;19.92;13.43;;;;;;;-0.24;75.08;100459.41;1087646;54;20034;-79
2022/02/13 03:40:06;;;;;;;20.55;13.48;;;;;;;-0.18;75.02;100460.94;1087548;54;20127;-79
2022/02/13 03:41:07;;;;;;;21.15;13.93;;;;;;;-0.15;74.71;100468.69;1087699;54;20045;-80
2022/02/13 03:42:14;;;;;;;19.73;13.35;;;;;;;-0.20;74.92;100463.63;1087824;54;20015;-80
2022/02/13 03:43:16;;;;;;;17.63;11.77;;;;;;;-0.17;74.75;100475.78;1087830;54;20034;-81
2022/02/13 03:44:20;;;;;;;17.70;11.90;;;;;;;-0.18;74.52;100464.41;1087658;54;20031;-79
2022/02/13 03:45:22;;;;;;;18.90;12.95;;;;;;;-0.19;74.97;100460.06;1087739;54;20038;-79
2022/02/13 03:46:26;;;;;;;17.98;11.70;;;;;;;-0.16;74.64;100464.34;1087738;54;20035;-79
2022/02/13 03:47:27;;;;;;;15.48;11.27;;;;;;;-0.10;74.50;100460.63;1087728;54;20039;-79
2022/02/13 03:48:32;;;;;;;17.35;12.30;;;;;;;-0.13;74.53;100460.75;1087759;47;20960;-79
2022/02/13 03:49:36;;;;;;;17.17;11.32;;;;;;;-0.16;74.66;100462.56;1087745;54;20042;-81
2022/02/13 03:50:38;;;;;;;17.60;11.90;;;;;;;-0.24;75.12;100462.03;1088917;46;20026;-79
2022/02/13 03:51:42;;;;;;;20.02;13.52;;;;;;;-0.24;74.87;100462.03;1087690;54;20041;-79
2022/02/13 03:52:44;;;;;;;18.80;13.30;;;;;;;-0.26;75.02;100461.25;1087676;54;20038;-81
2022/02/13 03:53:48;;;;;;;20.42;13.68;;;;;;;-0.34;75.23;100458.97;1088145;39;20201;-80
2022/02/13 03:54:50;;;;;;;17.67;12.07;;;;;;;-0.26;75.10;100460.41;1087637;54;20090;-79
2022/02/13 03:55:54;;;;;;;19.83;13.68;;;;;;;-0.34;75.47;100455.47;1087290;54;20040;-79
2022/02/13 03:56:56;;;;;;;18.58;11.82;;;;;;;-0.30;75.30;100464.94;1087717;54;20042;-79
2022/02/13 03:58:02;;;;;;;17.17;11.27;;;;;;;-0.30;75.28;100456.19;1087548;54;20034;-79
2022/02/13 03:59:06;;;;;;;17.80;11.80;;;;;;;-0.37;75.47;100452.97;1087732;54;20041;-79
2022/02/13 04:00:18;;;;;;;17.98;11.35;;;;;;;-0.33;75.40;100454.56;1087742;54;20030;-78
2022/02/13 04:01:20;;;;;;;16.85;10.45;;;;;;;-0.30;75.17;100457.06;1087704;54;20030;-78
2022/02/13 04:02:25;;;;;;;16.38;11.50;;;;;;;-0.33;75.17;100450.13;1087764;54;20039;-79
2022/02/13 04:03:26;;;;;;;18.10;11.40;;;;;;;-0.31;74.94;100452.72;1088307;46;20030;-79
2022/02/13 04:04:31;;;;;;;15.38;10.55;;;;;;;-0.28;74.90;100457.81;1087675;54;20034;-78
2022/02/13 04:05:32;;;;;;;17.30;11.35;;;;;;;-0.25;74.81;100448.97;1088644;46;20038;-78
2022/02/13 04:06:36;;;;;;;14.27;9.20;;;;;;;-0.24;74.67;100454.16;1088303;46;20037;-78
2022/02/13 04:07:39;;;;;;;13.90;9.25;;;;;;;-0.21;74.73;100459.28;1087664;54;20034;-79
2022/02/13 04:08:43;;;;;;;16.15;10.52;;;;;;;-0.20;74.60;100455.75;1087834;54;20702;-79
2022/02/13 04:09:45;;;;;;;16.55;10.70;;;;;;;-0.20;74.66;100461.00;1087573;54;20027;-79
2022/02/13 04:10:49;;;;;;;13.80;9.70;;;;;;;-0.17;74.73;100455.59;1088966;39;21033;-79
2022/02/13 04:11:50;;;;;;;15.30;11.23;;;;;;;-0.18;74.58;100458.31;1087205;54;20030;-80
2022/02/13 04:12:55;;;;;;;17.38;10.48;;;;;;;-0.16;74.67;100451.22;1087265;54;20746;-80
2022/02/13 04:13:59;;;;;;;17.48;9.90;;;;;;;-0.18;74.83;100453.03;1087655;54;20041;-80
2022/02/13 04:15:03;;;;;;;18.08;11.50;;;;;;;-0.27;75.02;100459.53;1087692;54;20030;-79
2022/02/13 04:16:05;;;;;;;16.90;11.48;;;;;;;-0.29;75.23;100452.66;1087659;54;20035;-79
2022/02/13 04:17:09;;;;;;;17.63;11.40;;;;;;;-0.26;75.05;100453.38;1087634;54;20030;-81
2022/02/13 04:18:12;;;;;;;14.50;10.55;;;;;;;-0.23;74.81;100458.50;1087678;54;20045;-80
2022/02/13 04:19:16;;;;;;;18.58;12.55;;;;;;;-0.31;75.32;100447.47;1087699;54;20058;-78
2022/02/13 04:20:20;;;;;;;17.65;11.20;;;;;;;-0.34;75.47;100442.34;1087680;54;20038;-79
2022/02/13 04:21:24;;;;;;;15.48;11.13;;;;;;;-0.32;75.41;100451.84;1089613;39;20638;-80
2022/02/13 04:22:26;;;;;;;19.20;11.65;;;;;;;-0.38;75.62;100448.66;1087649;54;20318;-79
2022/02/13 04:23:31;;;;;;;18.33;11.45;;;;;;;-0.38;75.70;100452.13;1087673;54;20094;-80
2022/02/13 04:24:33;;;;;;;16.42;10.55;;;;;;;-0.34;75.28;100445.84;1087673;54;20038;-79
2022/02/13 04:25:38;;;;;;;14.95;10.60;;;;;;;-0.31;75.41;100450.09;1087638;54;20086;-79
2022/02/13 04:26:40;;;;;;;16.52;11.13;;;;;;;-0.33;75.39;100446.69;1087638;54;20023;-79
2022/02/13 04:27:44;;;;;;;19.10;12.07;;;;;;;-0.33;75.44;100450.13;1087407;54;20057;-79
2022/02/13 04:28:46;;;;;;;18.23;12.25;;;;;;;-0.37;75.54;100445.94;1087253;54;20035;-80
2022/02/13 04:29:53;;;;;;;15.98;11.25;;;;;;;-0.34;75.78;100448.47;1087249;54;20086;-79
2022/02/13 04:30:55;;;;;;;13.45;9.73;;;;;;;-0.29;75.41;100453.53;1091320;39;20645;-82
2022/02/13 04:31:59;;;;;;;14.68;9.85;;;;;;;-0.28;75.29;100447.31;1087331;54;20037;-79
2022/02/13 04:33:00;;;;;;;15.80;10.73;;;;;;;-0.29;75.28;100447.38;1087230;54;20045;-79
2022/02/13 04:34:07;;;;;;;16.40;10.15;;;;;;;-0.27;75.33;100443.78;1087258;54;20064;-79
2022/02/13 04:35:09;;;;;;;13.75;9.55;;;;;;;-0.23;75.21;100453.25;1087406;54;20094;-80
2022/02/13 04:36:13;;;;;;;18.85;11.05;;;;;;;-0.24;75.38;100443.66;1087592;54;20090;-80
2022/02/13 04:37:15;;;;;;;18.35;11.32;;;;;;;-0.33;75.45;100433.53;1087622;54;20034;-79
2022/02/13 04:38:20;;;;;;;17.23;11.40;;;;;;;-0.39;75.44;100449.56;1088083;47;20094;-79
2022/02/13 04:39:21;;;;;;;15.25;10.50;;;;;;;-0.29;75.31;100453.53;1088026;47;20035;-78
2022/02/13 04:40:26;;;;;;;18.38;11.05;;;;;;;-0.31;75.33;100444.84;1087626;54;20106;-79
2022/02/13 04:41:28;;;;;;;15.90;11.15;;;;;;;-0.31;75.39;100444.84;1087641;54;20039;-80
2022/02/13 04:42:32;;;;;;;15.13;10.38;;;;;;;-0.27;75.30;100442.94;1087694;54;20041;-79
2022/02/13 04:43:33;;;;;;;19.02;11.93;;;;;;;-0.34;75.46;100437.06;1087605;54;20070;-80
2022/02/13 04:44:38;;;;;;;16.00;10.10;;;;;;;-0.29;75.37;100444.75;1091455;39;20586;-80
2022/02/13 04:45:42;;;;;;;15.85;10.57;;;;;;;-0.26;75.19;100424.47;1093446;39;20709;-79
2022/02/13 04:46:46;;;;;;;15.80;10.02;;;;;;;-0.26;75.01;100431.50;1087612;54;20099;-79
2022/02/13 04:47:48;;;;;;;18.70;11.40;;;;;;;-0.32;75.36;100437.88;1087738;54;20034;-79
2022/02/13 04:48:52;;;;;;;13.73;9.32;;;;;;;-0.30;75.47;100432.53;1088888;46;20035;-79
2022/02/13 04:49:54;;;;;;;16.48;10.30;;;;;;;-0.35;75.56;100435.38;1087846;54;20034;-80
2022/02/13 04:50:58;;;;;;;18.92;12.57;;;;;;;-0.40;75.75;100432.09;1091350;31;20747;-80
2022/02/13 04:52:00;;;;;;;18.10;11.93;;;;;;;-0.48;75.96;100432.41;1087974;54;20819;-79
2022/02/13 04:53:04;;;;;;;16.08;11.52;;;;;;;-0.43;75.94;100432.22;1088004;54;20034;-79
2022/02/13 04:54:05;;;;;;;20.77;11.45;;;;;;;-0.42;75.92;100433.94;1087976;54;20035;-80
2022/02/13 04:55:10;;;;;;;17.70;11.70;;;;;;;-0.44;76.02;100430.50;1087989;54;20031;-79
2022/02/13 04:56:11;;;;;;;16.95;11.20;;;;;;;-0.46;75.92;100427.94;1087967;54;20033;-82
2022/02/13 04:57:15;;;;;;;15.45;10.93;;;;;;;-0.45;75.78;100429.66;1088057;54;20040;-79
2022/02/13 04:58:17;;;;;;;15.88;10.63;;;;;;;-0.45;75.67;100418.28;1088263;54;20018;-79
2022/02/13 04:59:21;;;;;;;14.27;10.35;;;;;;;-0.43;75.53;100416.44;1088617;46;20018;-78
2022/02/13 05:00:26;;;;;;;14.30;10.68;;;;;;;-0.42;75.70;100415.53;1088300;54;20031;-79
2022/02/13 05:01:30;;;;;;;15.43;10.95;;;;;;;-0.44;75.64;100417.38;1089023;46;20095;-79
2022/02/13 05:02:35;;;;;;;14.75;10.30;;;;;;;-0.51;76.21;100419.41;1087893;54;20038;-79
2022/02/13 05:03:36;;;;;;;20.20;11.63;;;;;;;-0.55;76.45;100423.09;1087965;54;20034;-79
2022/02/13 05:04:40;;;;;;;17.35;11.60;;;;;;;-0.54;76.27;100422.19;1087841;54;20030;-80
2022/02/13 05:05:42;;;;;;;21.30;12.52;;;;;;;-0.61;76.49;100415.47;1087613;54;20797;-78
2022/02/13 05:06:46;;;;;;;19.58;12.27;;;;;;;-0.66;76.49;100405.16;1087929;54;20034;-78
2022/02/13 05:07:48;;;;;;;17.42;11.30;;;;;;;-0.66;76.74;100413.88;1087835;54;20041;-78
2022/02/13 05:08:53;;;;;;;16.70;10.18;;;;;;;-0.58;76.34;100418.81;1088099;54;20035;-79
2022/02/13 05:09:58;;;;;;;12.68;9.25;;;;;;;-0.55;76.30;100421.31;1088044;54;20018;-79
2022/02/13 05:10:59;;;;;;;17.05;11.25;;;;;;;-0.58;76.23;100405.69;1087831;54;20031;-78
2022/02/13 05:12:03;;;;;;;18.98;11.55;;;;;;;-0.61;76.35;100412.84;1087807;54;20111;-79
2022/02/13 05:13:05;;;;;;;15.77;10.23;;;;;;;-0.56;76.25;100411.72;1087563;54;20038;-79
2022/02/13 05:14:09;;;;;;;17.63;10.73;;;;;;;-0.57;75.96;100409.16;1087877;54;20034;-80
2022/02/13 05:15:10;;;;;;;15.27;10.38;;;;;;;-0.55;75.98;100408.16;1087618;54;20030;-79
2022/02/13 05:16:15;;;;;;;16.98;10.07;;;;;;;-0.54;76.18;100409.88;1090399;39;20570;-80
2022/02/13 05:17:21;;;;;;;16.52;9.88;;;;;;;-0.51;75.83;100414.16;1087978;54;20045;-79
2022/02/13 05:18:25;;;;;;;14.10;9.65;;;;;;;-0.49;75.60;100413.19;1087968;54;20035;-79
2022/02/13 05:19:26;;;;;;;14.13;9.48;;;;;;;-0.47;75.76;100413.94;1088781;46;20056;-81
2022/02/13 05:20:31;;;;;;;14.40;9.73;;;;;;;-0.44;75.45;100404.22;1087902;54;20082;-79
2022/02/13 05:21:33;;;;;;;12.93;9.15;;;;;;;-0.41;75.32;100417.25;1087490;54;20034;-79
2022/02/13 05:22:40;;;;;;;16.80;10.02;;;;;;;-0.46;75.43;100409.56;1087972;54;20026;-79
2022/02/13 05:23:45;;;;;;;15.25;10.25;;;;;;;-0.50;75.48;100407.97;1087878;54;20037;-79
2022/02/13 05:24:57;;;;;;;17.63;10.52;;;;;;;-0.52;75.69;100408.03;1088387;46;20037;-80
2022/02/13 05:26:07;;;;;;;14.75;9.65;;;;;;;-0.53;75.60;100405.50;1087956;54;20015;-79
2022/02/13 05:27:21;;;;;;;14.52;9.18;;;;;;;-0.49;75.71;100405.31;1087930;54;20015;-81
2022/02/13 05:28:26;;;;;;;15.02;9.65;;;;;;;-0.51;75.57;100404.50;1087950;54;20031;-79
2022/02/13 05:29:30;;;;;;;15.55;9.13;;;;;;;-0.49;75.72;100401.81;1087998;54;20115;-79
2022/02/13 05:30:35;;;;;;;15.85;9.40;;;;;;;-0.48;75.67;100401.75;1087922;54;20037;-81
2022/02/13 05:31:39;;;;;;;14.65;9.73;;;;;;;-0.49;75.56;100401.81;1088658;46;20034;-78
2022/02/13 05:32:43;;;;;;;13.55;8.95;;;;;;;-0.48;75.54;100395.63;1087905;54;20041;-79
2022/02/13 05:33:47;;;;;;;15.27;10.60;;;;;;;-0.56;75.80;100401.19;1087889;54;20035;-79
2022/02/13 05:34:49;;;;;;;15.55;10.55;;;;;;;-0.54;75.92;100401.16;1090081;46;20038;-79
2022/02/13 05:35:53;;;;;;;13.95;9.63;;;;;;;-0.51;75.71;100395.75;1087804;54;21181;-77
2022/02/13 05:36:55;;;;;;;15.85;10.18;;;;;;;-0.50;75.62;100395.72;1087777;54;20034;-79
2022/02/13 05:37:59;;;;;;;15.88;8.65;;;;;;;-0.49;75.58;100394.78;1087596;54;20082;-79
2022/02/13 05:39:01;;;;;;;13.85;9.20;;;;;;;-0.47;75.46;100397.34;1087874;54;20046;-79
2022/02/13 05:40:06;;;;;;;14.10;8.98;;;;;;;-0.48;75.54;100396.50;1087950;54;20038;-78
2022/02/13 05:41:08;;;;;;;13.75;9.60;;;;;;;-0.52;75.71;100400.16;1087940;54;20082;-79
2022/02/13 05:42:12;;;;;;;13.40;9.23;;;;;;;-0.49;75.44;100397.41;1087992;54;20053;-79
2022/02/13 05:43:14;;;;;;;15.55;9.40;;;;;;;-0.49;75.41;100394.78;1087946;54;20025;-80
2022/02/13 05:44:18;;;;;;;17.80;10.45;;;;;;;-0.55;75.39;100397.66;1087688;54;20057;-79
2022/02/13 05:45:20;;;;;;;16.73;9.90;;;;;;;-0.57;75.51;100389.03;1087520;54;20034;-79
2022/02/13 05:46:25;;;;;;;14.10;9.90;;;;;;;-0.58;75.56;100396.94;1087815;54;20740;-78
2022/02/13 05:47:29;;;;;;;13.88;9.20;;;;;;;-0.57;75.81;100388.16;1087900;54;20030;-79
2022/02/13 05:48:34;;;;;;;18.65;9.52;;;;;;;-0.58;75.68;100392.56;1087836;54;20337;-78
2022/02/13 05:49:38;;;;;;;13.32;9.00;;;;;;;-0.57;75.50;100389.03;1087898;54;20027;-79
2022/02/13 05:50:41;;;;;;;15.30;9.02;;;;;;;-0.59;75.83;100390.84;1089126;46;20026;-77
2022/02/13 05:51:45;;;;;;;14.18;9.25;;;;;;;-0.57;75.83;100388.16;1087834;54;20035;-79
2022/02/13 05:52:50;;;;;;;13.30;9.45;;;;;;;-0.64;76.07;100380.53;1088133;46;21145;-80
2022/02/13 05:53:51;;;;;;;14.95;9.63;;;;;;;-0.61;76.08;100381.34;1087481;54;20046;-79
2022/02/13 05:54:55;;;;;;;16.02;10.15;;;;;;;-0.59;75.77;100380.34;1087901;54;20030;-79
2022/02/13 05:55:57;;;;;;;13.73;9.60;;;;;;;-0.59;75.79;100385.59;1088772;39;20678;-78
2022/02/13 05:57:01;;;;;;;15.88;9.68;;;;;;;-0.54;75.87;100377.53;1087877;54;20119;-79
2022/02/13 05:58:03;;;;;;;12.77;9.38;;;;;;;-0.56;75.67;100385.44;1087775;54;20046;-78
2022/02/13 05:59:07;;;;;;;13.93;9.57;;;;;;;-0.52;75.74;100370.44;1087727;54;20026;-78
2022/02/13 06:00:16;;;;;;;15.07;9.88;;;;;;;-0.55;75.60;100368.78;1087769;54;20039;-79
2022/02/13 06:01:18;;;;;;;13.70;8.65;;;;;;;-0.52;75.83;100370.44;1087820;54;20042;-79
2022/02/13 06:02:22;;;;;;;13.43;9.23;;;;;;;-0.52;75.53;100367.81;1087898;54;20034;-79
2022/02/13 06:03:26;;;;;;;12.18;8.23;;;;;;;-0.49;75.61;100371.16;1088227;39;20828;-79
2022/02/13 06:04:30;;;;;;;14.70;9.52;;;;;;;-0.50;75.58;100368.56;1087896;54;20034;-79
2022/02/13 06:05:35;;;;;;;13.20;8.88;;;;;;;-0.50;75.68;100369.44;1087843;54;20027;-78
2022/02/13 06:06:36;;;;;;;14.90;8.85;;;;;;;-0.49;75.69;100359.78;1087800;54;20039;-79
2022/02/13 06:07:41;;;;;;;15.75;10.30;;;;;;;-0.52;75.67;100352.88;1087803;54;20034;-79
2022/02/13 06:08:43;;;;;;;12.70;9.10;;;;;;;-0.50;75.68;100358.94;1087745;54;20038;-79
2022/02/13 06:09:47;;;;;;;13.95;8.85;;;;;;;-0.48;75.52;100364.13;1087430;54;20690;-79
2022/02/13 06:10:48;;;;;;;12.75;8.63;;;;;;;-0.48;75.43;100359.72;1087857;54;20042;-79
2022/02/13 06:11:53;;;;;;;11.80;8.55;;;;;;;-0.43;75.48;100358.66;1087817;54;20710;-79
2022/02/13 06:12:54;;;;;;;12.65;8.32;;;;;;;-0.41;75.34;100365.53;1087841;54;20034;-79
2022/02/13 06:13:58;;;;;;;14.10;9.13;;;;;;;-0.40;75.31;100371.66;1087827;54;20804;-79
2022/02/13 06:15:00;;;;;;;13.50;9.40;;;;;;;-0.42;75.25;100366.47;1088118;46;20039;-79
2022/02/13 06:16:06;;;;;;;13.98;8.85;;;;;;;-0.40;75.05;100363.78;1087784;47;20034;-79
2022/02/13 06:17:10;;;;;;;12.63;8.70;;;;;;;-0.38;74.98;100367.22;1087857;54;20034;-79
2022/02/13 06:18:12;;;;;;;13.57;8.45;;;;;;;-0.40;74.95;100361.16;1089359;46;20054;-79
